Time;durP1;ratioP1;P1;durP2;ratioP2;P2;SDS_P1;SDS_P2;PMS_P1;PMS_P2;Temp;Humidity;BMP_temperature;BMP_pressure;BME280_temperature;BME280_humidity;BME280_pressure;Samples;Min_cycle;Max_cycle;Signal;HPM_P1;HPM_P2
2023/07/14 00:00:59;;;;;;;16.60;11.90;;;;;;;16.92;91.70;100386.48;104083;279;98114;-56
2023/07/14 00:03:41;;;;;;;12.00;10.80;;;;;;;16.95;91.56;100388.85;104095;279;120364;-56
2023/07/14 00:06:16;;;;;;;12.30;11.00;;;;;;;16.91;91.19;100388.14;104100;279;105813;-56
2023/07/14 00:08:51;;;;;;;12.60;10.10;;;;;;;16.83;91.37;100387.70;104083;279;114483;-56
2023/07/14 00:11:26;;;;;;;10.20;9.20;;;;;;;16.79;91.39;100387.30;104482;279;97282;-56
2023/07/14 00:14:00;;;;;;;9.80;8.80;;;;;;;16.72;91.24;100384.92;104086;279;98353;-56
2023/07/14 00:16:34;;;;;;;10.30;9.30;;;;;;;16.64;91.07;100382.84;104038;279;119580;-56
2023/07/14 00:19:14;;;;;;;;;;;;;;;16.57;91.01;100383.77;104068;279;105660;-56
2023/07/14 00:21:49;;;;;;;11.80;8.90;;;;;;;16.48;91.20;100389.33;104067;279;114734;-56
2023/07/14 00:24:25;;;;;;;9.60;8.50;;;;;;;16.44;91.08;100381.75;103921;267;97950;-56
2023/07/14 00:26:59;;;;;;;9.70;8.80;;;;;;;16.40;90.98;100385.73;104086;279;98293;-58
2023/07/14 00:29:42;;;;;;;9.50;8.00;;;;;;;16.34;90.95;100385.13;104479;279;121504;-58
2023/07/14 00:32:20;;;;;;;10.50;9.20;;;;;;;16.29;90.99;100381.73;104515;279;104928;-58
2023/07/14 00:34:54;;;;;;;11.20;8.60;;;;;;;16.25;90.97;100381.09;104119;279;114328;-57
2023/07/14 00:37:28;;;;;;;9.90;8.50;;;;;;;16.20;91.09;100381.64;104506;279;94933;-57
2023/07/14 00:40:03;;;;;;;9.40;8.50;;;;;;;16.14;90.92;100386.52;104107;279;96807;-57
2023/07/14 00:42:37;;;;;;;8.90;8.10;;;;;;;16.08;91.05;100389.33;104468;279;119014;-57
2023/07/14 00:45:20;;;;;;;8.80;7.90;;;;;;;16.03;90.97;100387.32;104107;279;105168;-57
2023/07/14 00:47:57;;;;;;;9.10;8.20;;;;;;;16.00;91.15;100390.77;104051;279;114884;-57
2023/07/14 00:50:41;;;;;;;12.20;8.20;;;;;;;15.94;91.23;100387.23;104061;279;97209;-56
2023/07/14 00:53:19;;;;;;;11.00;9.10;;;;;;;15.91;91.20;100383.74;104078;279;97589;-56
2023/07/14 00:55:59;;;;;;;9.80;8.60;;;;;;;15.89;91.12;100381.88;104057;279;119163;-57
2023/07/14 00:58:34;;;;;;;12.10;9.50;;;;;;;15.88;91.30;100383.35;104477;279;103181;-57
2023/07/14 01:01:13;;;;;;;10.30;9.20;;;;;;;15.87;91.24;100387.81;104124;279;113650;-57
2023/07/14 01:03:47;;;;;;;11.90;9.90;;;;;;;15.82;91.35;100390.20;104081;279;95342;-57
2023/07/14 01:06:25;;;;;;;11.40;10.00;;;;;;;15.80;91.27;100392.77;104109;279;96976;-58
2023/07/14 01:09:03;;;;;;;11.10;10.00;;;;;;;15.77;91.41;100391.54;103909;271;120810;-58
2023/07/14 01:11:41;;;;;;;11.20;10.10;;;;;;;15.73;91.35;100391.33;104479;279;104456;-57
2023/07/14 01:14:21;;;;;;;12.60;10.50;;;;;;;15.69;91.30;100391.49;104093;279;114272;-57
2023/07/14 01:16:56;;;;;;;12.40;10.10;;;;;;;15.66;91.45;100386.58;104473;279;95730;-58
2023/07/14 01:19:40;;;;;;;11.20;10.10;;;;;;;15.62;91.64;100382.86;104092;279;96871;-56
2023/07/14 01:22:24;;;;;;;11.20;9.50;;;;;;;15.59;91.51;100378.24;104079;267;120574;-56
2023/07/14 01:25:08;;;;;;;10.70;9.70;;;;;;;15.54;91.63;100379.42;104083;279;106078;-56
2023/07/14 01:27:42;;;;;;;12.20;9.80;;;;;;;15.53;91.81;100385.88;104489;279;113730;-56
2023/07/14 01:30:17;;;;;;;12.50;9.90;;;;;;;15.56;92.03;100393.48;104093;283;94483;-57
2023/07/14 01:32:52;;;;;;;11.50;10.10;;;;;;;15.55;91.85;100395.29;104079;279;96585;-57
2023/07/14 01:35:31;;;;;;;12.30;10.30;;;;;;;15.51;91.76;100396.16;104494;279;120556;-56
2023/07/14 01:38:05;;;;;;;11.10;9.90;;;;;;;15.50;91.93;100396.55;104466;279;104809;-56
2023/07/14 01:40:38;;;;;;;;;;;;;;;15.51;91.80;100414.39;104050;279;114322;-57
2023/07/14 01:43:14;;;;;;;10.10;9.10;;;;;;;15.45;91.83;100422.29;104084;279;97736;-58
2023/07/14 01:45:52;;;;;;;10.50;9.00;;;;;;;15.43;92.08;100420.23;104496;279;96687;-56
2023/07/14 01:48:31;;;;;;;9.70;8.80;;;;;;;15.44;92.43;100420.40;104074;279;119982;-56
2023/07/14 01:51:10;;;;;;;10.20;8.90;;;;;;;15.43;91.98;100432.59;104117;279;104673;-56
2023/07/14 01:53:49;;;;;;;9.70;8.70;;;;;;;15.40;92.00;100436.09;103908;279;115211;-56
2023/07/14 01:56:26;;;;;;;12.40;8.50;;;;;;;15.36;92.14;100424.96;104088;279;95406;-56
2023/07/14 01:59:06;;;;;;;9.40;8.50;;;;;;;15.33;91.92;100430.73;104079;279;97172;-56
2023/07/14 02:01:44;;;;;;;9.30;8.40;;;;;;;15.30;91.85;100436.36;104104;279;120178;-56
2023/07/14 02:04:24;;;;;;;8.90;8.00;;;;;;;15.22;91.81;100437.76;104083;279;105526;-56
2023/07/14 02:07:01;;;;;;;9.90;8.90;;;;;;;15.17;91.68;100433.35;104490;279;113158;-56
2023/07/14 02:09:36;;;;;;;9.80;8.80;;;;;;;15.10;91.74;100433.25;104482;279;94678;-56
2023/07/14 02:12:15;;;;;;;10.10;9.10;;;;;;;15.08;91.71;100442.27;104098;279;96270;-56
2023/07/14 02:14:58;;;;;;;10.00;9.00;;;;;;;15.07;91.93;100444.29;104499;279;121243;-56
2023/07/14 02:17:35;;;;;;;10.50;9.50;;;;;;;15.02;91.60;100441.66;104096;279;103661;-57
2023/07/14 02:20:19;;;;;;;10.10;9.10;;;;;;;14.94;91.55;100443.59;104100;279;113496;-57
2023/07/14 02:22:55;;;;;;;11.80;10.60;;;;;;;14.91;91.62;100440.42;103914;280;96283;-56
2023/07/14 02:25:34;;;;;;;11.20;9.60;;;;;;;14.89;91.76;100446.55;104096;279;96043;-55
2023/07/14 02:28:10;;;;;;;11.70;10.40;;;;;;;14.92;91.85;100451.25;104055;279;119737;-55
2023/07/14 02:30:51;;;;;;;11.20;9.90;;;;;;;14.90;91.94;100459.10;104097;279;105776;-55
2023/07/14 02:33:32;;;;;;;10.60;9.60;;;;;;;14.85;92.04;100456.65;104043;279;114489;-55
2023/07/14 02:36:21;;;;;;;9.10;8.20;;;;;;;14.79;92.00;100460.52;104488;267;95721;-55
2023/07/14 02:38:55;;;;;;;11.10;10.00;;;;;;;14.76;91.72;100462.41;104468;279;97774;-55
2023/07/14 02:41:34;;;;;;;10.50;9.50;;;;;;;14.71;92.09;100456.90;104095;279;120853;-55
2023/07/14 02:44:13;;;;;;;12.10;10.30;;;;;;;14.70;92.18;100459.98;104107;279;103168;-55
2023/07/14 02:46:54;;;;;;;12.40;10.50;;;;;;;14.72;92.20;100458.32;104047;279;114060;-57
2023/07/14 02:49:29;;;;;;;10.70;9.60;;;;;;;14.71;92.38;100463.90;104111;279;96557;-57
2023/07/14 02:52:03;;;;;;;11.70;10.70;;;;;;;14.74;92.36;100469.03;104078;279;96791;-57
2023/07/14 02:54:39;;;;;;;13.10;10.60;;;;;;;14.81;92.48;100463.63;104495;279;121606;-55
2023/07/14 02:57:13;;;;;;;12.10;10.80;;;;;;;14.86;92.64;100466.39;103933;271;104389;-55
2023/07/14 02:59:47;;;;;;;11.00;9.90;;;;;;;14.90;92.72;100476.67;104486;279;114514;-55
2023/07/14 03:02:21;;;;;;;10.80;9.70;;;;;;;14.97;93.07;100489.66;104086;279;96793;-55
2023/07/14 03:04:55;;;;;;;12.20;10.70;;;;;;;15.06;93.03;100490.08;104493;279;96289;-55
2023/07/14 03:07:32;;;;;;;12.00;10.80;;;;;;;15.14;93.42;100481.13;104068;279;120040;-55
2023/07/14 03:10:09;;;;;;;12.00;11.00;;;;;;;15.24;93.33;100479.14;104062;279;105728;-57
2023/07/14 03:12:43;;;;;;;12.70;11.40;;;;;;;15.34;93.29;100488.18;104047;279;113322;-57
2023/07/14 03:15:18;;;;;;;13.30;11.50;;;;;;;15.43;93.22;100480.77;104061;279;95372;-55
2023/07/14 03:17:52;;;;;;;13.10;11.80;;;;;;;15.54;93.26;100486.04;103929;279;96073;-55
2023/07/14 03:20:25;;;;;;;;;;;;;;;15.61;93.30;100489.30;104055;279;119527;-57
2023/07/14 03:23:00;;;;;;;12.20;10.90;;;;;;;15.67;93.35;100491.70;104494;279;105708;-57
2023/07/14 03:25:35;;;;;;;14.60;10.90;;;;;;;15.76;93.57;100491.63;104085;279;113592;-57
2023/07/14 03:28:09;;;;;;;12.20;11.00;;;;;;;15.90;93.49;100490.26;104093;267;96564;-57
2023/07/14 03:30:44;;;;;;;14.30;10.60;;;;;;;16.01;93.74;100488.59;104500;279;96685;-57
2023/07/14 03:33:18;;;;;;;12.90;10.20;;;;;;;16.10;93.60;100490.73;104089;279;119086;-57
2023/07/14 03:35:52;;;;;;;12.70;10.10;;;;;;;16.21;93.66;100489.20;104067;279;104542;-55
2023/07/14 03:38:26;;;;;;;11.10;10.00;;;;;;;16.58;93.20;100487.20;104487;279;113290;-55
2023/07/14 03:41:00;;;;;;;11.20;9.70;;;;;;;16.87;92.58;100492.27;104116;279;96000;-57
2023/07/14 03:43:33;;;;;;;;;;;;;;;17.20;92.60;100492.60;104494;279;97155;-57
2023/07/14 03:46:08;;;;;;;14.10;9.40;;;;;;;17.97;91.57;100503.23;104111;279;120457;-55
2023/07/14 03:48:42;;;;;;;13.30;8.90;;;;;;;18.67;90.53;100499.20;104083;279;105098;-55
2023/07/14 03:51:16;;;;;;;10.00;8.50;;;;;;;18.56;89.25;100500.24;104080;279;114470;-57
2023/07/14 03:53:51;;;;;;;10.10;8.30;;;;;;;18.75;89.44;100499.04;104087;279;93918;-57
2023/07/14 03:56:26;;;;;;;10.00;8.90;;;;;;;19.70;88.67;100496.52;104132;275;98378;-55
2023/07/14 03:59:00;;;;;;;10.60;8.20;;;;;;;20.69;87.32;100489.25;103919;279;121355;-55
2023/07/14 04:01:33;;;;;;;;;;;;;;;21.52;85.80;100487.80;104120;279;106082;-56
2023/07/14 04:04:08;;;;;;;11.00;7.60;;;;;;;22.27;84.55;100495.95;104076;279;113983;-55
2023/07/14 04:06:42;;;;;;;9.40;7.50;;;;;;;23.01;82.38;100497.10;104075;279;93150;-57
2023/07/14 04:09:16;;;;;;;9.00;7.20;;;;;;;23.67;80.88;100491.02;104080;279;96579;-57
2023/07/14 04:11:51;;;;;;;10.10;7.40;;;;;;;24.21;78.83;100494.83;104077;279;120394;-55
2023/07/14 04:14:45;;;;;;;8.50;7.00;;;;;;;24.67;76.97;100491.13;104104;279;104252;-55
2023/07/14 04:17:19;;;;;;;8.90;7.30;;;;;;;24.84;74.80;100494.77;104054;279;114814;-55
2023/07/14 04:19:53;;;;;;;9.60;7.80;;;;;;;24.82;73.91;100496.64;104105;279;95054;-55
2023/07/14 04:22:28;;;;;;;8.80;7.20;;;;;;;24.02;73.43;100504.79;104110;279;97201;-53
2023/07/14 04:25:02;;;;;;;8.40;6.40;;;;;;;22.77;74.28;100507.59;104500;268;121229;-56
2023/07/14 04:27:36;;;;;;;8.00;6.80;;;;;;;21.96;74.68;100510.32;104084;279;104802;-56
2023/07/14 04:30:13;;;;;;;8.60;7.20;;;;;;;21.77;74.95;100509.58;104508;279;112109;-55
2023/07/14 04:32:50;;;;;;;8.20;7.30;;;;;;;22.45;74.64;100513.98;104108;279;93445;-55
2023/07/14 04:35:24;;;;;;;8.30;6.60;;;;;;;22.38;74.21;100513.54;104133;279;97310;-57
2023/07/14 04:37:59;;;;;;;8.80;7.20;;;;;;;21.91;74.50;100517.30;104083;279;119838;-57
2023/07/14 04:40:33;;;;;;;7.20;6.50;;;;;;;21.58;75.21;100513.05;104086;279;105814;-56
2023/07/14 04:43:08;;;;;;;10.00;7.20;;;;;;;21.28;75.38;100509.64;104121;279;116563;-56
2023/07/14 04:45:44;;;;;;;9.50;7.50;;;;;;;21.15;75.88;100514.20;104514;279;93624;-57
2023/07/14 04:48:23;;;;;;;10.10;6.60;;;;;;;21.08;76.17;100522.34;104132;279;97959;-66
2023/07/14 04:50:57;;;;;;;9.40;6.70;;;;;;;21.11;76.41;100524.34;104073;279;119535;-55
2023/07/14 04:53:31;;;;;;;8.30;7.40;;;;;;;21.88;75.90;100523.23;104097;279;104681;-55
2023/07/14 04:56:06;;;;;;;6.80;6.10;;;;;;;22.14;75.35;100530.96;104063;279;114857;-55
2023/07/14 04:58:40;;;;;;;7.70;6.50;;;;;;;22.20;75.25;100532.01;104043;279;94527;-55
2023/07/14 05:01:12;;;;;;;;;;;;;;;21.95;74.96;100528.58;104117;279;97223;-56
2023/07/14 05:03:47;;;;;;;6.90;6.00;;;;;;;21.89;75.40;100536.33;104059;279;120650;-56
2023/07/14 05:06:22;;;;;;;8.10;6.40;;;;;;;22.50;74.72;100539.35;104079;279;103682;-56
2023/07/14 05:08:56;;;;;;;7.90;6.60;;;;;;;22.45;73.85;100544.05;104483;279;112582;-56
2023/07/14 05:11:31;;;;;;;8.20;7.00;;;;;;;22.02;73.78;100543.73;103929;279;94986;-57
2023/07/14 05:14:05;;;;;;;8.80;6.50;;;;;;;21.84;73.48;100542.54;104099;271;98273;-56
2023/07/14 05:16:40;;;;;;;8.70;6.10;;;;;;;21.40;73.78;100548.90;104091;279;119568;-57
2023/07/14 05:19:14;;;;;;;7.90;7.00;;;;;;;21.45;74.57;100545.44;103584;279;491813;-57
2023/07/14 05:21:49;;;;;;;7.10;6.30;;;;;;;23.34;74.22;100544.14;104493;279;112545;-55
2023/07/14 05:24:23;;;;;;;6.80;5.90;;;;;;;25.03;72.66;100540.55;104483;279;97769;-55
2023/07/14 05:26:59;;;;;;;7.80;5.80;;;;;;;26.52;70.39;100539.00;104099;279;96747;-55
2023/07/14 05:29:34;;;;;;;8.90;5.50;;;;;;;27.61;67.51;100541.92;104109;279;120119;-55
2023/07/14 05:32:10;;;;;;;9.70;6.10;;;;;;;28.68;65.73;100536.14;104080;279;103733;-55
2023/07/14 05:34:45;;;;;;;7.20;6.00;;;;;;;29.53;63.70;100536.65;104082;279;113576;-56
2023/07/14 05:37:20;;;;;;;8.60;6.00;;;;;;;30.30;61.72;100540.75;104109;279;95383;-56
2023/07/14 05:39:54;;;;;;;7.30;5.30;;;;;;;31.04;60.32;100542.84;104078;279;96840;-55
2023/07/14 05:42:28;;;;;;;6.60;5.20;;;;;;;31.69;58.41;100545.16;104099;267;119509;-55
2023/07/14 05:45:03;;;;;;;5.50;5.00;;;;;;;32.33;55.72;100543.16;104070;279;105832;-56
2023/07/14 05:47:39;;;;;;;5.80;5.20;;;;;;;32.66;54.16;100544.39;104108;279;114799;-56
2023/07/14 05:50:15;;;;;;;6.90;4.70;;;;;;;33.06;53.28;100542.13;104060;279;93989;-55
2023/07/14 05:52:49;;;;;;;4.80;4.40;;;;;;;33.27;52.34;100547.01;104096;279;97461;-55
2023/07/14 05:55:24;;;;;;;6.30;4.80;;;;;;;33.41;50.85;100546.29;104084;279;120742;-55
2023/07/14 05:57:58;;;;;;;5.00;4.50;;;;;;;33.59;50.33;100548.44;104095;279;103452;-55
2023/07/14 06:00:38;;;;;;;5.40;4.40;;;;;;;34.11;49.36;100547.70;104484;279;113367;-57
2023/07/14 06:03:17;;;;;;;5.40;4.30;;;;;;;34.24;48.33;100550.77;104105;279;93172;-57
2023/07/14 06:05:52;;;;;;;8.90;4.60;;;;;;;34.65;47.50;100547.73;104130;279;96263;-55
2023/07/14 06:08:26;;;;;;;6.50;4.00;;;;;;;34.75;46.53;100548.89;104107;279;120344;-56
2023/07/14 06:11:00;;;;;;;5.50;3.80;;;;;;;34.89;45.90;100547.58;104111;279;106063;-56
2023/07/14 06:13:35;;;;;;;6.10;4.40;;;;;;;34.96;45.34;100551.98;104123;279;114341;-56
2023/07/14 06:16:09;;;;;;;4.40;4.00;;;;;;;35.11;44.34;100555.48;104102;279;94990;-56
2023/07/14 06:18:43;;;;;;;4.80;4.20;;;;;;;35.28;44.16;100560.00;104093;275;96760;-56
2023/07/14 06:21:18;;;;;;;4.30;3.70;;;;;;;35.45;43.36;100560.40;104115;279;118411;-57
2023/07/14 06:23:52;;;;;;;4.20;3.70;;;;;;;35.67;43.46;100559.85;104492;279;105393;-57
2023/07/14 06:26:28;;;;;;;7.70;3.50;;;;;;;36.16;42.32;100554.30;104488;279;113666;-56
2023/07/14 06:29:02;;;;;;;3.80;3.30;;;;;;;36.17;41.44;100555.73;104105;279;94477;-56
2023/07/14 06:31:37;;;;;;;7.00;3.50;;;;;;;36.44;41.07;100560.30;104104;279;96796;-57
2023/07/14 06:34:12;;;;;;;4.70;3.70;;;;;;;36.88;40.26;100557.98;104074;279;119262;-58
2023/07/14 06:36:46;;;;;;;4.80;3.50;;;;;;;37.13;39.49;100552.08;104066;279;105609;-57
2023/07/14 06:39:21;;;;;;;4.10;3.40;;;;;;;37.00;38.83;100555.36;104075;279;112323;-57
2023/07/14 06:41:55;;;;;;;4.10;3.40;;;;;;;36.96;38.86;100562.96;104480;279;93766;-57
2023/07/14 06:44:29;;;;;;;4.00;3.40;;;;;;;37.30;38.18;100562.25;104507;279;97934;-57
2023/07/14 06:47:03;;;;;;;6.20;2.80;;;;;;;37.03;37.99;100562.35;104122;279;120445;-56
2023/07/14 06:49:37;;;;;;;5.10;3.50;;;;;;;36.89;37.94;100567.30;104064;279;105789;-56
2023/07/14 06:52:13;;;;;;;4.30;2.80;;;;;;;36.83;37.55;100562.30;103928;280;116226;-57
2023/07/14 06:54:49;;;;;;;6.80;2.90;;;;;;;37.24;37.55;100559.85;104489;279;93429;-57
2023/07/14 06:57:22;;;;;;;5.30;3.50;;;;;;;37.41;36.79;100560.38;104506;279;97515;-58
2023/07/14 06:59:56;;;;;;;4.10;3.20;;;;;;;37.94;36.32;100563.05;104509;279;121607;-58
2023/07/14 07:02:31;;;;;;;6.10;3.30;;;;;;;37.09;35.21;100562.02;104084;279;106247;-58
2023/07/14 07:05:06;;;;;;;3.60;2.80;;;;;;;37.02;35.91;100560.16;104070;279;113548;-56
2023/07/14 07:07:41;;;;;;;4.60;3.40;;;;;;;37.30;35.81;100558.97;104085;279;93572;-56
2023/07/14 07:10:15;;;;;;;4.20;2.80;;;;;;;37.76;35.14;100556.80;104097;279;96489;-56
2023/07/14 07:12:49;;;;;;;5.50;3.30;;;;;;;38.12;35.19;100556.17;104092;279;120324;-56
2023/07/14 07:15:24;;;;;;;4.30;2.90;;;;;;;38.29;34.66;100556.14;104079;279;103803;-56
2023/07/14 07:17:58;;;;;;;6.20;3.10;;;;;;;38.55;34.13;100554.12;104106;279;113268;-56
2023/07/14 07:20:32;;;;;;;5.30;3.40;;;;;;;38.58;33.90;100551.04;104081;279;94684;-53
2023/07/14 07:23:06;;;;;;;3.80;3.10;;;;;;;38.69;33.48;100552.67;104118;279;97345;-53
2023/07/14 07:25:46;;;;;;;5.60;3.10;;;;;;;38.40;33.93;100549.13;104085;279;119163;-57
2023/07/14 07:28:21;;;;;;;7.70;3.50;;;;;;;38.58;33.55;100547.64;104124;279;106011;-55
2023/07/14 07:30:55;;;;;;;4.10;3.00;;;;;;;38.69;33.19;100549.64;104080;279;114551;-55
2023/07/14 07:33:29;;;;;;;4.10;3.00;;;;;;;38.46;33.48;100552.73;104091;279;95290;-55
2023/07/14 07:36:14;;;;;;;5.10;2.70;;;;;;;38.55;33.17;100551.54;104081;279;98971;-55
2023/07/14 07:38:51;;;;;;;4.70;2.80;;;;;;;39.00;32.50;100553.63;104063;279;120184;-55
2023/07/14 07:41:28;;;;;;;3.50;2.60;;;;;;;39.02;32.61;100554.95;104076;279;104490;-55
2023/07/14 07:44:04;;;;;;;5.20;2.90;;;;;;;39.11;31.38;100554.55;104089;279;113721;-56
2023/07/14 07:46:38;;;;;;;4.00;3.00;;;;;;;39.00;31.69;100557.65;104099;279;93989;-56
2023/07/14 07:49:12;;;;;;;4.90;2.90;;;;;;;39.05;31.86;100555.73;104510;279;97015;-61
2023/07/14 07:51:47;;;;;;;4.80;3.10;;;;;;;39.12;32.03;100556.91;104151;279;120221;-54
2023/07/14 07:54:22;;;;;;;4.90;2.80;;;;;;;38.97;32.23;100560.10;104113;279;105009;-54
2023/07/14 07:56:56;;;;;;;4.70;2.60;;;;;;;38.75;32.42;100560.82;104488;279;113903;-56
2023/07/14 07:59:31;;;;;;;5.50;2.90;;;;;;;39.04;32.61;100563.71;104109;279;94071;-55
2023/07/14 08:02:10;;;;;;;3.90;2.70;;;;;;;39.07;31.59;100556.73;104135;279;97097;-54
2023/07/14 08:04:49;;;;;;;3.20;2.50;;;;;;;39.01;31.84;100561.55;104502;279;120466;-54
2023/07/14 08:07:24;;;;;;;3.90;2.40;;;;;;;39.11;31.33;100564.23;104089;279;104334;-55
2023/07/14 08:09:58;;;;;;;3.20;2.30;;;;;;;39.10;31.29;100565.50;104089;279;114887;-55
2023/07/14 08:12:33;;;;;;;2.70;2.40;;;;;;;39.23;31.54;100566.98;104093;279;95089;-55
2023/07/14 08:15:10;;;;;;;4.00;2.80;;;;;;;39.36;30.91;100565.66;104477;279;96844;-55
2023/07/14 08:17:59;;;;;;;4.20;2.70;;;;;;;39.63;30.91;100570.46;104090;279;121639;-55
2023/07/14 08:20:33;;;;;;;3.10;2.00;;;;;;;39.71;30.97;100571.97;104097;279;104538;-57
2023/07/14 08:23:13;;;;;;;3.40;1.90;;;;;;;39.41;30.18;100571.71;104477;279;115249;-57
2023/07/14 08:25:56;;;;;;;3.90;2.50;;;;;;;38.30;29.81;100573.89;104102;279;93194;-56
2023/07/14 08:28:31;;;;;;;3.30;1.80;;;;;;;37.82;30.98;100577.52;103774;281;96645;-57
2023/07/14 08:31:11;;;;;;;3.30;2.00;;;;;;;36.83;30.89;100579.41;104101;279;122016;-56
2023/07/14 08:33:49;;;;;;;3.80;2.00;;;;;;;36.01;32.28;100582.14;104120;279;104786;-57
2023/07/14 08:36:24;;;;;;;3.00;2.00;;;;;;;35.32;32.71;100580.11;104102;279;113427;-56
2023/07/14 08:38:59;;;;;;;3.70;2.10;;;;;;;35.87;33.32;100582.66;104098;279;95211;-58
2023/07/14 08:41:38;;;;;;;2.50;2.10;;;;;;;36.31;32.75;100580.91;104103;279;98176;-56
2023/07/14 08:44:48;;;;;;;5.00;2.50;;;;;;;35.97;32.77;100586.67;103920;279;119924;-57
2023/07/14 08:47:29;;;;;;;4.00;2.30;;;;;;;36.66;32.29;100587.09;104114;279;105497;-55
2023/07/14 08:50:13;;;;;;;2.70;1.90;;;;;;;37.27;31.66;100577.31;104078;279;113870;-55
2023/07/14 08:52:50;;;;;;;4.80;2.20;;;;;;;37.80;31.06;100580.45;104113;279;95076;-55
2023/07/14 08:55:28;;;;;;;2.20;1.60;;;;;;;37.98;30.74;100582.55;104513;279;97969;-54
2023/07/14 08:58:10;;;;;;;2.40;1.50;;;;;;;37.98;29.79;100583.85;104078;279;119207;-54
2023/07/14 09:00:56;;;;;;;8.80;3.10;;;;;;;37.80;29.72;100581.01;104519;279;105191;-54
2023/07/14 09:03:42;;;;;;;5.60;1.80;;;;;;;37.71;29.59;100583.52;104079;279;113728;-54
2023/07/14 09:06:30;;;;;;;4.30;1.80;;;;;;;37.42;28.90;100582.55;104071;279;94888;-56
2023/07/14 09:09:13;;;;;;;3.90;1.50;;;;;;;37.12;29.19;100581.59;104497;279;96919;-54
2023/07/14 09:12:03;;;;;;;3.20;2.00;;;;;;;36.57;29.71;100585.60;104094;279;120367;-57
2023/07/14 09:14:52;;;;;;;2.40;1.50;;;;;;;36.16;29.73;100590.91;104141;279;105137;-56
2023/07/14 09:17:43;;;;;;;2.80;1.60;;;;;;;35.75;30.51;100591.99;104520;279;113083;-56
2023/07/14 09:20:55;;;;;;;2.80;1.60;;;;;;;35.17;30.24;100590.97;104127;279;92321;-54
2023/07/14 09:23:55;;;;;;;3.90;2.20;;;;;;;33.98;30.65;100600.08;103977;279;96550;-55
2023/07/14 09:26:36;;;;;;;3.40;1.50;;;;;;;33.45;31.24;100594.27;104069;279;121872;-56
2023/07/14 09:29:19;;;;;;;3.50;1.50;;;;;;;32.98;31.86;100593.70;104095;279;104026;-56
2023/07/14 09:32:02;;;;;;;2.30;1.40;;;;;;;32.81;32.16;100590.91;104499;279;113020;-54
2023/07/14 09:34:42;;;;;;;4.10;2.00;;;;;;;32.31;31.73;100595.67;104116;275;94910;-55
2023/07/14 09:37:21;;;;;;;3.60;1.50;;;;;;;31.77;32.39;100599.77;104103;279;97977;-55
2023/07/14 09:40:17;;;;;;;3.40;1.70;;;;;;;31.59;32.95;100599.13;104084;279;119446;-55
2023/07/14 09:42:55;;;;;;;4.30;1.50;;;;;;;31.39;33.40;100598.08;103935;279;105654;-55
2023/07/14 09:45:31;;;;;;;1.80;1.50;;;;;;;31.49;33.80;100596.02;104096;279;113691;-55
2023/07/14 09:48:12;;;;;;;3.50;1.50;;;;;;;31.57;33.26;100589.62;104068;279;93961;-54
2023/07/14 09:50:56;;;;;;;3.60;1.50;;;;;;;31.49;33.23;100589.48;103956;279;96646;-55
2023/07/14 09:53:32;;;;;;;2.70;1.20;;;;;;;31.58;33.87;100582.80;104070;283;120518;-55
2023/07/14 09:56:12;;;;;;;3.60;1.40;;;;;;;31.43;33.14;100587.01;104079;279;106211;-54
2023/07/14 09:59:01;;;;;;;2.60;1.30;;;;;;;31.36;33.22;100587.66;104072;279;115132;-54
2023/07/14 10:01:49;;;;;;;2.20;1.40;;;;;;;31.35;33.32;100579.47;104086;279;94886;-55
2023/07/14 10:04:30;;;;;;;3.00;1.50;;;;;;;31.32;33.50;100576.93;104529;279;98000;-55
2023/07/14 10:07:40;;;;;;;2.20;1.50;;;;;;;31.13;33.18;100572.61;104538;279;119510;-54
2023/07/14 10:10:16;;;;;;;3.60;1.50;;;;;;;31.20;33.64;100572.81;104517;279;103515;-54
2023/07/14 10:12:53;;;;;;;2.50;1.50;;;;;;;31.23;34.37;100576.69;104069;279;113119;-54
2023/07/14 10:15:39;;;;;;;5.10;1.50;;;;;;;31.29;34.20;100570.42;104495;279;95549;-56
2023/07/14 10:18:17;;;;;;;2.90;1.30;;;;;;;31.37;34.11;100566.17;104094;279;97073;-56
2023/07/14 10:21:02;;;;;;;3.50;1.80;;;;;;;31.47;34.21;100560.70;104492;279;120552;-54
2023/07/14 10:23:36;;;;;;;1.90;1.20;;;;;;;31.68;34.14;100564.13;104107;279;104662;-55
2023/07/14 10:26:11;;;;;;;3.20;1.20;;;;;;;31.74;34.13;100562.91;104083;279;114755;-55
2023/07/14 10:28:48;;;;;;;2.00;1.20;;;;;;;31.84;33.65;100557.58;104060;279;94368;-56
2023/07/14 10:31:33;;;;;;;2.90;1.40;;;;;;;31.72;33.31;100555.93;104485;279;98424;-54
2023/07/14 10:34:37;;;;;;;2.70;1.30;;;;;;;31.66;33.42;100557.09;104064;279;120217;-54
2023/07/14 10:37:24;;;;;;;2.00;1.20;;;;;;;31.73;33.23;100557.58;103938;279;105719;-55
2023/07/14 10:40:04;;;;;;;1.80;1.30;;;;;;;31.79;33.16;100556.38;104469;279;114609;-56
2023/07/14 10:42:43;;;;;;;2.60;1.40;;;;;;;31.66;33.14;100559.98;104089;279;95050;-56
2023/07/14 10:45:18;;;;;;;5.10;1.60;;;;;;;31.64;33.32;100552.28;104507;279;97158;-56
2023/07/14 10:47:56;;;;;;;3.00;1.40;;;;;;;31.69;33.57;100547.79;104057;279;120887;-56
2023/07/14 10:50:37;;;;;;;2.60;1.10;;;;;;;31.77;33.00;100548.18;104068;279;104694;-55
2023/07/14 10:53:29;;;;;;;2.20;1.20;;;;;;;31.65;32.76;100548.83;104071;279;114319;-54
2023/07/14 10:56:13;;;;;;;2.90;1.30;;;;;;;31.24;32.67;100548.98;104096;279;94533;-54
2023/07/14 10:58:54;;;;;;;2.60;1.30;;;;;;;31.18;32.92;100548.99;103927;279;96257;-54
2023/07/14 11:01:37;;;;;;;1.80;1.20;;;;;;;31.34;33.04;100547.04;104074;279;120427;-54
2023/07/14 11:04:26;;;;;;;3.70;1.30;;;;;;;31.06;32.83;100545.15;104088;279;105104;-54
2023/07/14 11:07:01;;;;;;;2.10;1.30;;;;;;;30.42;32.78;100548.77;104079;279;114547;-54
2023/07/14 11:09:36;;;;;;;3.70;1.30;;;;;;;29.98;32.99;100543.52;104095;279;93020;-55
2023/07/14 11:12:23;;;;;;;4.30;1.40;;;;;;;29.94;33.27;100538.66;104099;279;98365;-56
2023/07/14 11:15:11;;;;;;;1.90;1.10;;;;;;;29.94;33.11;100538.98;104101;279;120559;-56
2023/07/14 11:17:54;;;;;;;2.20;1.40;;;;;;;29.70;33.58;100535.23;104059;279;104741;-55
2023/07/14 11:20:32;;;;;;;;;;;;;;;29.34;33.90;100537.11;104101;279;113199;-54
2023/07/14 11:23:31;;;;;;;2.00;1.20;;;;;;;28.94;33.97;100537.95;104052;279;93820;-54
2023/07/14 11:26:17;;;;;;;3.50;1.40;;;;;;;28.99;34.80;100537.59;104091;279;96736;-54
2023/07/14 11:28:59;;;;;;;3.60;1.30;;;;;;;29.39;34.76;100532.57;104085;279;120134;-54
2023/07/14 11:31:40;;;;;;;4.10;1.90;;;;;;;29.40;34.38;100536.39;104502;279;104928;-54
2023/07/14 11:34:27;;;;;;;3.40;1.20;;;;;;;29.25;34.63;100538.27;104090;279;112459;-54
2023/07/14 11:37:19;;;;;;;2.10;1.10;;;;;;;29.27;34.51;100529.80;104094;279;94123;-56
2023/07/14 11:39:58;;;;;;;2.70;1.20;;;;;;;29.50;34.92;100531.27;103949;279;98456;-56
2023/07/14 11:42:38;;;;;;;1.80;1.10;;;;;;;29.48;34.11;100534.83;104103;279;119477;-56
2023/07/14 11:45:25;;;;;;;2.30;1.50;;;;;;;29.39;33.85;100531.28;104555;279;105644;-56
2023/07/14 11:48:03;;;;;;;1.80;1.30;;;;;;;29.35;33.92;100538.48;104488;279;113230;-55
2023/07/14 11:50:39;;;;;;;1.80;1.00;;;;;;;28.99;33.99;100542.44;104098;279;95117;-55
2023/07/14 11:53:23;;;;;;;2.40;1.20;;;;;;;28.96;34.18;100541.16;104095;279;97357;-55
2023/07/14 11:56:19;;;;;;;1.80;1.30;;;;;;;29.19;34.14;100544.50;104092;279;120028;-55
2023/07/14 11:59:18;;;;;;;2.40;1.60;;;;;;;29.43;34.22;100534.38;104074;279;104186;-55
2023/07/14 12:01:55;;;;;;;2.20;1.20;;;;;;;29.36;34.30;100534.30;104073;279;114244;-55
2023/07/14 12:04:34;;;;;;;2.10;1.20;;;;;;;29.48;34.17;100535.88;103902;279;96235;-54
2023/07/14 12:07:22;;;;;;;1.60;1.00;;;;;;;29.39;33.41;100530.77;104533;279;97898;-53
2023/07/14 12:10:14;;;;;;;2.50;1.20;;;;;;;29.52;33.65;100530.55;104089;283;121543;-55